Time;durP1;ratioP1;P1;durP2;ratioP2;P2;SDS_P1;SDS_P2;PMS_P1;PMS_P2;Temp;Humidity;BMP_temperature;BMP_pressure;BME280_temperature;BME280_humidity;BME280_pressure;Samples;Min_cycle;Max_cycle;Signal;HPM_P1;HPM_P2
2024/02/27 00:01:39;;;;;;;29.90;21.00;;;;;;;11.12;90.36;99872.66;5089618;28;20205;-63
2024/02/27 00:04:08;;;;;;;28.80;20.37;;;;;;;11.10;89.94;99871.81;5090629;28;20229;-63
2024/02/27 00:06:37;;;;;;;32.33;20.67;;;;;;;11.08;90.17;99865.88;5094216;28;20204;-62
2024/02/27 00:09:05;;;;;;;27.77;20.30;;;;;;;11.08;90.19;99863.28;5084452;28;20228;-62
2024/02/27 00:11:34;;;;;;;31.87;20.27;;;;;;;11.05;90.21;99863.31;5094113;28;20256;-63
2024/02/27 00:14:02;;;;;;;29.77;20.33;;;;;;;11.04;90.41;99874.50;5052476;28;20226;-65
2024/02/27 00:16:30;;;;;;;30.87;19.70;;;;;;;11.02;90.44;99871.09;5051389;28;20228;-63
2024/02/27 00:18:58;;;;;;;27.40;19.03;;;;;;;11.01;90.47;99869.41;5054162;28;20210;-62
2024/02/27 00:21:26;;;;;;;28.37;19.87;;;;;;;11.00;89.99;99869.41;5052960;28;20645;-63
2024/02/27 00:23:56;;;;;;;29.50;20.33;;;;;;;10.98;90.56;99868.63;5053082;28;20206;-62
2024/02/27 00:26:24;;;;;;;33.10;20.53;;;;;;;10.95;90.24;99879.81;5050212;28;20697;-62
2024/02/27 00:28:52;;;;;;;26.03;19.00;;;;;;;10.95;90.15;99882.41;5054526;28;20283;-64
2024/02/27 00:31:20;;;;;;;26.43;20.10;;;;;;;10.93;90.09;99875.56;5060478;28;20356;-61
2024/02/27 00:33:47;;;;;;;29.03;19.73;;;;;;;10.91;90.13;99877.31;5044284;28;20649;-63
2024/02/27 00:36:16;;;;;;;31.57;20.07;;;;;;;10.89;90.40;99885.06;5039020;28;20641;-62
2024/02/27 00:38:44;;;;;;;25.60;19.30;;;;;;;10.87;90.28;99882.50;5050865;28;20206;-68
2024/02/27 00:41:14;;;;;;;27.40;18.97;;;;;;;10.86;90.09;99883.41;5052695;28;20303;-63
2024/02/27 00:43:42;;;;;;;30.60;19.80;;;;;;;10.86;90.42;99890.25;5047057;28;20202;-62
2024/02/27 00:46:10;;;;;;;29.93;18.93;;;;;;;10.84;90.55;99886.88;5049404;28;20307;-63
2024/02/27 00:48:38;;;;;;;30.73;20.00;;;;;;;10.82;90.47;99891.19;5053549;28;20563;-65
2024/02/27 00:51:06;;;;;;;27.47;18.47;;;;;;;10.81;90.39;99886.91;5048920;28;20205;-64
2024/02/27 00:53:35;;;;;;;26.83;19.13;;;;;;;10.80;90.51;99886.06;5052257;28;20520;-62
2024/02/27 00:56:03;;;;;;;29.37;19.87;;;;;;;10.78;90.56;99884.38;5051997;28;20726;-63
2024/02/27 00:58:34;;;;;;;27.40;19.07;;;;;;;10.75;90.71;99889.56;5052212;28;20689;-64
2024/02/27 01:01:02;;;;;;;26.87;19.17;;;;;;;10.75;90.96;99900.75;5055331;28;20242;-63
2024/02/27 01:03:30;;;;;;;27.13;19.20;;;;;;;10.73;90.62;99894.75;5054383;28;20202;-62
2024/02/27 01:05:58;;;;;;;29.33;19.00;;;;;;;10.71;90.43;99891.34;5052854;28;20220;-63
2024/02/27 01:08:27;;;;;;;30.53;19.70;;;;;;;10.69;90.53;99897.41;5053023;28;20327;-63
2024/02/27 01:10:55;;;;;;;31.83;19.70;;;;;;;10.67;90.82;99904.28;5046103;28;20239;-64
2024/02/27 01:13:23;;;;;;;26.33;18.53;;;;;;;10.66;90.83;99902.59;5079038;28;20716;-63
2024/02/27 01:15:52;;;;;;;31.10;18.80;;;;;;;10.61;90.97;99910.41;5090568;28;20212;-62
2024/02/27 01:18:20;;;;;;;30.60;18.70;;;;;;;10.60;91.01;99906.97;5093720;28;20215;-62
2024/02/27 01:20:48;;;;;;;28.50;18.80;;;;;;;10.60;90.86;99904.41;5094306;28;20201;-67
2024/02/27 01:23:16;;;;;;;27.33;17.83;;;;;;;10.60;91.14;99908.66;5082941;28;20205;-62
2024/02/27 01:25:44;;;;;;;28.63;18.87;;;;;;;10.58;90.92;99900.97;5084360;28;20224;-62
2024/02/27 01:28:12;;;;;;;28.10;20.07;;;;;;;10.58;90.94;99908.72;5091660;28;20201;-64
2024/02/27 01:30:40;;;;;;;26.73;18.23;;;;;;;10.59;90.77;99901.81;5091350;28;20196;-61
2024/02/27 01:33:09;;;;;;;25.83;18.27;;;;;;;10.60;90.92;99908.66;5090216;28;20216;-62
2024/02/27 01:35:37;;;;;;;26.90;17.87;;;;;;;10.57;90.83;99909.59;5092172;28;20221;-62
2024/02/27 01:38:06;;;;;;;24.13;18.00;;;;;;;10.58;90.86;99926.75;5092475;28;20200;-61
2024/02/27 01:40:34;;;;;;;28.47;18.20;;;;;;;10.56;90.75;99918.16;5088401;28;20209;-63
2024/02/27 01:43:02;;;;;;;32.60;19.97;;;;;;;10.56;90.73;99923.31;5083256;28;20201;-63
2024/02/27 01:45:30;;;;;;;29.33;18.00;;;;;;;10.51;90.44;99925.13;5085784;28;20208;-64
2024/02/27 01:47:58;;;;;;;27.93;17.90;;;;;;;10.49;90.61;99926.00;5090596;28;20665;-63
2024/02/27 01:50:28;;;;;;;26.33;17.60;;;;;;;10.47;90.76;99923.47;5090886;28;20254;-61
2024/02/27 01:52:57;;;;;;;24.23;16.93;;;;;;;10.45;91.02;99922.59;5090913;28;20316;-62
2024/02/27 01:55:25;;;;;;;27.43;17.13;;;;;;;10.46;90.88;99934.66;5090683;28;20244;-63
2024/02/27 01:57:53;;;;;;;30.03;18.20;;;;;;;10.47;90.69;99928.59;5092103;28;20196;-62
2024/02/27 02:00:22;;;;;;;27.80;18.53;;;;;;;10.49;90.60;99936.31;5086638;28;20205;-67
2024/02/27 02:02:50;;;;;;;26.30;18.23;;;;;;;10.49;90.13;99934.56;5089626;28;20240;-63
2024/02/27 02:05:18;;;;;;;27.77;16.73;;;;;;;10.48;90.27;99940.59;5091651;28;20200;-62
2024/02/27 02:07:48;;;;;;;24.93;16.90;;;;;;;10.46;90.59;99937.22;5089549;28;20204;-62
2024/02/27 02:10:16;;;;;;;23.67;16.40;;;;;;;10.46;90.37;99942.38;5091264;28;20219;-63
2024/02/27 02:12:44;;;;;;;27.13;18.00;;;;;;;10.46;90.25;99931.22;5089055;28;20233;-66
2024/02/27 02:15:12;;;;;;;24.33;17.57;;;;;;;10.47;89.90;99943.22;5091374;28;20319;-64
2024/02/27 02:17:42;;;;;;;23.03;17.47;;;;;;;10.43;89.79;99928.69;5088191;28;20250;-65
2024/02/27 02:20:16;;;;;;;26.73;17.37;;;;;;;10.41;90.17;99938.97;5083638;28;20311;-63
2024/02/27 02:22:44;;;;;;;24.57;16.10;;;;;;;10.41;89.98;99944.13;5088335;28;20209;-63
2024/02/27 02:25:14;;;;;;;24.10;16.63;;;;;;;10.41;89.98;99936.41;5089435;28;20658;-62
2024/02/27 02:27:43;;;;;;;24.10;16.57;;;;;;;10.40;90.06;99935.56;5087591;28;20205;-63
2024/02/27 02:30:14;;;;;;;26.13;16.30;;;;;;;10.42;89.97;99939.81;5091004;28;20208;-61
2024/02/27 02:32:48;;;;;;;25.40;16.40;;;;;;;10.40;89.77;99948.44;5077226;28;20215;-63
2024/02/27 02:35:19;;;;;;;28.43;17.87;;;;;;;10.38;89.95;99942.47;5075962;28;20212;-63
2024/02/27 02:37:49;;;;;;;26.93;16.60;;;;;;;10.40;90.18;99947.59;5088297;28;20657;-62
2024/02/27 02:40:19;;;;;;;27.40;16.80;;;;;;;10.40;89.82;99951.00;5095101;28;20554;-62
2024/02/27 02:42:47;;;;;;;25.63;17.43;;;;;;;10.40;90.07;99952.75;5078120;28;20213;-62
2024/02/27 02:45:16;;;;;;;27.27;17.57;;;;;;;10.40;89.98;99953.59;5085830;28;20205;-66
2024/02/27 02:47:44;;;;;;;24.57;16.70;;;;;;;10.39;90.06;99951.88;5091757;28;20200;-64
2024/02/27 02:50:13;;;;;;;26.43;17.27;;;;;;;10.39;89.71;99951.03;5090381;28;20215;-62
2024/02/27 02:52:44;;;;;;;28.10;17.97;;;;;;;10.35;89.65;99949.38;5090664;28;20204;-63
2024/02/27 02:55:13;;;;;;;27.17;17.13;;;;;;;10.33;89.71;99946.81;5090153;28;20262;-62
2024/02/27 02:57:41;;;;;;;25.43;17.23;;;;;;;10.34;89.89;99950.22;5089457;28;20211;-63
2024/02/27 03:00:09;;;;;;;28.63;17.10;;;;;;;10.32;89.64;99946.84;5083449;28;20270;-61
2024/02/27 03:02:37;;;;;;;24.27;16.80;;;;;;;10.32;89.56;99950.25;5088368;28;20201;-63
2024/02/27 03:05:06;;;;;;;27.93;17.40;;;;;;;10.32;89.48;99954.56;5088053;28;20200;-63
2024/02/27 03:07:34;;;;;;;27.47;17.27;;;;;;;10.31;89.33;99957.97;5091191;28;20656;-63
2024/02/27 03:10:04;;;;;;;22.57;16.63;;;;;;;10.28;89.50;99953.75;5086126;28;20212;-62
2024/02/27 03:12:32;;;;;;;25.67;17.37;;;;;;;10.26;89.43;99952.03;5091565;28;20277;-63
2024/02/27 03:15:00;;;;;;;26.57;16.73;;;;;;;10.24;89.72;99954.63;5095925;28;20284;-64
2024/02/27 03:17:29;;;;;;;25.50;17.63;;;;;;;10.23;89.63;99955.47;5090393;28;20220;-64
2024/02/27 03:19:57;;;;;;;24.20;16.27;;;;;;;10.22;89.82;99958.06;5081092;28;20985;-62
2024/02/27 03:22:25;;;;;;;25.50;17.17;;;;;;;10.22;89.96;99968.38;5092799;28;20689;-63
2024/02/27 03:24:53;;;;;;;26.80;17.77;;;;;;;10.21;89.72;99982.13;5094696;28;20201;-64
2024/02/27 03:27:22;;;;;;;25.63;17.40;;;;;;;10.19;89.53;99976.97;5093234;28;20214;-64
2024/02/27 03:29:50;;;;;;;26.80;17.73;;;;;;;10.21;89.91;99974.41;5094756;28;20232;-63
2024/02/27 03:32:19;;;;;;;25.20;17.37;;;;;;;10.20;89.84;99981.28;5089398;28;20231;-63
2024/02/27 03:34:47;;;;;;;26.57;17.73;;;;;;;10.20;89.61;99982.97;5093955;28;21691;-63
2024/02/27 03:37:16;;;;;;;25.50;17.63;;;;;;;10.22;89.57;99978.69;5094638;28;20212;-63
2024/02/27 03:39:44;;;;;;;25.77;17.30;;;;;;;10.21;89.51;99976.97;5084840;28;20294;-68
2024/02/27 03:42:12;;;;;;;25.60;16.70;;;;;;;10.20;89.53;99980.41;5091044;28;20205;-62
2024/02/27 03:44:46;;;;;;;28.50;17.07;;;;;;;10.16;89.30;99988.19;5094137;28;20289;-62
2024/02/27 03:47:14;;;;;;;27.10;17.40;;;;;;;10.10;89.11;99985.66;5092145;28;20201;-66
2024/02/27 03:49:42;;;;;;;27.40;16.27;;;;;;;10.06;89.18;99990.88;5095344;28;20295;-61
2024/02/27 03:52:11;;;;;;;26.57;16.90;;;;;;;10.00;89.90;99983.19;5093825;28;20197;-61
2024/02/27 03:54:39;;;;;;;24.93;17.60;;;;;;;9.96;89.59;99986.69;5093397;28;20201;-63
2024/02/27 03:57:09;;;;;;;26.00;18.03;;;;;;;9.95;89.88;99990.97;5092385;28;20246;-65
2024/02/27 03:59:39;;;;;;;26.10;17.30;;;;;;;9.91;90.37;99990.16;5091564;28;20204;-64
2024/02/27 04:02:08;;;;;;;22.70;15.57;;;;;;;9.91;89.88;99994.44;5089507;28;20281;-63
2024/02/27 04:04:36;;;;;;;27.00;18.17;;;;;;;9.89;89.94;99996.16;5090092;28;20219;-65
2024/02/27 04:07:04;;;;;;;30.97;17.37;;;;;;;9.85;90.13;99989.34;5091058;28;20561;-61
2024/02/27 04:09:32;;;;;;;24.30;17.17;;;;;;;9.83;90.17;99983.34;5093895;28;20211;-61
2024/02/27 04:12:00;;;;;;;25.07;17.83;;;;;;;9.81;90.38;99982.53;5093527;28;20993;-61
2024/02/27 04:14:29;;;;;;;24.60;18.30;;;;;;;9.80;90.65;99983.41;5093522;28;20235;-64
2024/02/27 04:16:57;;;;;;;28.20;17.77;;;;;;;9.78;90.25;99987.69;5093924;28;20254;-63
2024/02/27 04:19:26;;;;;;;25.50;17.73;;;;;;;9.75;90.83;99982.56;5091662;28;20205;-61
2024/02/27 04:21:54;;;;;;;28.87;17.67;;;;;;;9.75;90.64;99982.56;5086778;28;20258;-62
2024/02/27 04:24:22;;;;;;;25.57;18.00;;;;;;;9.75;90.81;99982.56;5093630;28;20200;-62
2024/02/27 04:26:50;;;;;;;27.57;17.97;;;;;;;9.70;90.86;99984.34;5093376;28;20204;-64
2024/02/27 04:29:18;;;;;;;29.53;19.43;;;;;;;9.65;90.71;99974.97;5093246;28;20201;-62
2024/02/27 04:31:46;;;;;;;26.57;18.30;;;;;;;9.64;90.97;99978.38;5089183;28;20205;-64
2024/02/27 04:34:15;;;;;;;33.83;18.77;;;;;;;9.63;91.09;99981.81;5080748;28;20237;-62
2024/02/27 04:36:47;;;;;;;30.57;18.77;;;;;;;9.59;91.01;99977.56;5080512;28;20278;-61
2024/02/27 04:39:15;;;;;;;24.67;18.27;;;;;;;9.56;91.11;99982.75;5087307;28;20200;-64
2024/02/27 04:41:43;;;;;;;28.77;19.03;;;;;;;9.55;91.14;99985.34;5092785;28;20205;-62
2024/02/27 04:44:12;;;;;;;28.73;19.03;;;;;;;9.51;91.56;99979.38;5082751;28;20212;-61
2024/02/27 04:46:40;;;;;;;26.83;18.50;;;;;;;9.49;91.60;99986.22;5090428;28;20204;-63
2024/02/27 04:49:08;;;;;;;26.13;19.23;;;;;;;9.49;91.41;99985.38;5100937;28;20549;-62
2024/02/27 04:51:36;;;;;;;28.23;18.03;;;;;;;9.47;91.53;99987.97;5092354;28;20660;-61
2024/02/27 04:54:06;;;;;;;28.53;18.23;;;;;;;9.43;91.57;99987.16;5089823;28;21145;-61
2024/02/27 04:56:34;;;;;;;28.43;18.60;;;;;;;9.41;91.94;99986.28;5096268;28;20216;-62
2024/02/27 04:59:02;;;;;;;27.23;18.13;;;;;;;9.41;92.11;99988.00;5091452;28;20722;-64
2024/02/27 05:01:30;;;;;;;31.83;18.90;;;;;;;9.41;92.17;99990.59;5091941;28;20553;-63
2024/02/27 05:03:58;;;;;;;27.80;17.97;;;;;;;9.41;92.02;100003.44;5091097;28;20686;-63
2024/02/27 05:06:26;;;;;;;30.10;18.67;;;;;;;9.41;92.18;100011.16;5092834;28;20227;-62
2024/02/27 05:08:54;;;;;;;26.97;19.07;;;;;;;9.41;91.81;100018.88;5092664;28;20653;-62
2024/02/27 05:11:25;;;;;;;26.77;17.80;;;;;;;9.43;92.44;100012.00;5089685;28;20215;-62
2024/02/27 05:13:53;;;;;;;28.03;17.07;;;;;;;9.45;92.08;100025.69;5083342;28;20232;-62
2024/02/27 05:16:21;;;;;;;24.97;18.17;;;;;;;9.46;92.17;100032.53;5090652;28;20584;-63
2024/02/27 05:18:50;;;;;;;25.70;18.17;;;;;;;9.48;92.29;100035.13;5092620;28;20204;-63
2024/02/27 05:21:18;;;;;;;26.00;17.67;;;;;;;9.49;91.54;100027.38;5092807;28;20653;-64
2024/02/27 05:23:48;;;;;;;26.33;18.13;;;;;;;9.46;91.58;100032.53;5090378;28;20201;-62
2024/02/27 05:26:16;;;;;;;27.63;18.30;;;;;;;9.43;91.86;100027.44;5090785;28;20208;-63
2024/02/27 05:28:46;;;;;;;27.93;18.90;;;;;;;9.45;91.74;100030.84;5092921;28;20684;-64
2024/02/27 05:31:24;;;;;;;25.03;17.87;;;;;;;9.45;91.83;100030.84;5081016;28;20615;-62
2024/02/27 05:33:52;;;;;;;27.67;17.47;;;;;;;9.44;91.58;100035.13;5088879;28;20220;-64
2024/02/27 05:36:22;;;;;;;27.33;19.00;;;;;;;9.49;91.73;100036.81;5091986;28;20196;-67
2024/02/27 05:38:51;;;;;;;25.47;17.93;;;;;;;9.47;91.23;100036.00;5084918;28;20208;-63
2024/02/27 05:41:19;;;;;;;26.73;18.47;;;;;;;9.50;91.46;100051.38;5092917;28;20200;-63
2024/02/27 05:43:48;;;;;;;29.50;18.10;;;;;;;9.51;91.39;100053.94;5091110;28;20204;-65
2024/02/27 05:46:17;;;;;;;30.23;18.37;;;;;;;9.56;91.04;100057.34;5091784;28;20196;-62
2024/02/27 05:48:45;;;;;;;28.53;17.47;;;;;;;9.57;90.59;100056.50;5092549;28;20564;-65
2024/02/27 05:51:13;;;;;;;29.93;18.33;;;;;;;9.63;90.79;100056.44;5084039;28;20196;-63
2024/02/27 05:53:42;;;;;;;28.73;19.47;;;;;;;9.64;90.43;100065.84;5091601;28;20236;-63
2024/02/27 05:56:11;;;;;;;26.70;18.27;;;;;;;9.68;90.33;100075.28;5100751;28;20196;-64
2024/02/27 05:58:39;;;;;;;35.80;17.73;;;;;;;9.71;89.93;100073.53;5093954;28;20587;-64
2024/02/27 06:01:08;;;;;;;29.10;17.93;;;;;;;9.73;89.80;100076.94;5091962;28;20653;-63
2024/02/27 06:03:36;;;;;;;27.33;17.63;;;;;;;9.73;89.44;100082.09;5085290;28;20209;-64
2024/02/27 06:06:06;;;;;;;26.50;18.67;;;;;;;9.74;89.69;100082.06;5090627;28;20219;-64
2024/02/27 06:08:34;;;;;;;28.30;17.53;;;;;;;9.77;89.72;100078.63;5089473;28;20205;-64
2024/02/27 06:11:02;;;;;;;24.57;17.30;;;;;;;9.80;89.46;100087.19;5091996;28;20201;-67
2024/02/27 06:13:30;;;;;;;27.33;17.87;;;;;;;9.82;89.40;100082.00;5091041;28;20259;-63
2024/02/27 06:15:58;;;;;;;28.60;18.63;;;;;;;9.82;89.64;100076.88;5089767;28;20208;-65
2024/02/27 06:18:28;;;;;;;26.50;17.80;;;;;;;9.87;89.60;100082.84;5085638;28;20223;-63
2024/02/27 06:23:42;;;;;;;26.03;18.10;;;;;;;9.97;88.99;100087.03;5090512;28;20204;-62
2024/02/27 06:26:13;;;;;;;25.10;17.83;;;;;;;10.02;89.19;100084.44;5087232;28;20201;-61
2024/02/27 06:28:42;;;;;;;25.33;17.03;;;;;;;10.04;88.37;100083.53;5085510;28;20595;-63
2024/02/27 06:31:11;;;;;;;26.87;17.97;;;;;;;10.12;88.75;100089.47;5083255;28;20258;-63
2024/02/27 06:33:40;;;;;;;27.37;16.77;;;;;;;10.20;88.02;100086.84;5091257;28;20582;-67
2024/02/27 06:36:09;;;;;;;25.57;18.03;;;;;;;10.26;87.41;100086.81;5092683;28;20224;-65
2024/02/27 06:38:37;;;;;;;24.20;17.73;;;;;;;10.29;86.78;100088.50;5091300;28;20252;-64
2024/02/27 06:41:05;;;;;;;26.80;17.67;;;;;;;10.25;86.47;100086.78;5089324;28;20283;-64
2024/02/27 06:43:34;;;;;;;25.67;17.30;;;;;;;10.24;86.74;100087.69;5085367;28;20303;-63
2024/02/27 06:46:04;;;;;;;28.90;17.33;;;;;;;10.23;86.61;100094.53;5087555;28;20933;-63
2024/02/27 06:48:35;;;;;;;28.03;17.87;;;;;;;10.23;86.62;100091.94;5066063;27;20232;-63
2024/02/27 06:51:06;;;;;;;27.50;18.23;;;;;;;10.19;85.80;100090.28;5054819;28;20202;-63
2024/02/27 06:53:34;;;;;;;27.17;17.53;;;;;;;10.14;86.33;100089.47;5066346;28;20200;-66
2024/02/27 06:56:03;;;;;;;25.60;17.00;;;;;;;10.14;86.60;100095.47;5069073;28;20216;-68
2024/02/27 06:58:31;;;;;;;26.97;18.20;;;;;;;10.15;86.49;100098.91;5065731;28;20217;-62
2024/02/27 07:00:59;;;;;;;27.33;17.80;;;;;;;10.14;86.35;100095.47;5069100;28;20209;-66
2024/02/27 07:03:28;;;;;;;28.23;18.30;;;;;;;10.20;85.92;100099.72;5064610;28;20673;-64
2024/02/27 07:05:57;;;;;;;21.97;16.33;;;;;;;10.27;86.16;100092.81;5062678;28;20201;-63
2024/02/27 07:08:29;;;;;;;25.73;17.60;;;;;;;10.33;85.71;100103.06;5066308;28;20784;-62
2024/02/27 07:10:57;;;;;;;25.40;18.73;;;;;;;10.42;85.82;100092.69;5067307;28;20205;-65
2024/02/27 07:13:25;;;;;;;25.33;17.03;;;;;;;10.59;85.67;100093.34;5070432;28;20244;-64
2024/02/27 07:15:53;;;;;;;28.37;17.93;;;;;;;10.83;84.97;100096.53;5070835;28;20730;-63
2024/02/27 07:18:21;;;;;;;26.00;16.87;;;;;;;11.01;84.09;100095.41;5067151;28;20574;-63
2024/02/27 07:20:50;;;;;;;22.73;16.97;;;;;;;11.09;83.58;100093.63;5069832;28;20400;-62
2024/02/27 07:23:17;;;;;;;28.10;18.20;;;;;;;11.24;82.48;100103.72;5061307;28;20229;-62
2024/02/27 07:25:47;;;;;;;22.93;16.83;;;;;;;11.33;82.32;100095.84;5071298;28;20745;-67
2024/02/27 07:28:15;;;;;;;25.17;17.63;;;;;;;11.42;81.34;100101.78;5071052;28;20601;-64
2024/02/27 07:30:53;;;;;;;25.33;17.67;;;;;;;11.49;81.00;100099.09;5070766;28;20289;-63
2024/02/27 07:33:21;;;;;;;27.03;16.67;;;;;;;11.63;80.41;100100.59;5070379;28;20288;-64
2024/02/27 07:35:50;;;;;;;27.37;16.67;;;;;;;11.71;79.99;100091.00;5063331;28;20270;-62
2024/02/27 07:38:19;;;;;;;28.40;16.70;;;;;;;11.83;79.72;100088.25;5070887;28;20682;-64
2024/02/27 07:40:50;;;;;;;28.53;17.73;;;;;;;11.89;78.06;100093.31;5060786;28;20206;-64
2024/02/27 07:43:18;;;;;;;23.90;17.03;;;;;;;11.90;78.64;100094.19;5069078;28;20218;-63
2024/02/27 07:45:51;;;;;;;24.03;16.60;;;;;;;12.01;78.52;100095.72;5070736;28;20255;-63
2024/02/27 07:48:20;;;;;;;25.27;17.23;;;;;;;12.17;77.95;100088.56;5066543;28;20633;-62
2024/02/27 07:50:53;;;;;;;24.07;16.30;;;;;;;12.21;76.80;100099.69;5069750;28;20204;-62
2024/02/27 07:53:21;;;;;;;22.60;15.37;;;;;;;12.27;76.68;100105.63;5068612;28;20729;-62
2024/02/27 07:55:51;;;;;;;25.90;16.77;;;;;;;12.36;77.21;100099.41;5070094;28;20197;-63
2024/02/27 07:58:19;;;;;;;27.80;16.73;;;;;;;12.45;76.08;100101.84;5069992;28;20255;-66
2024/02/27 08:00:47;;;;;;;23.77;16.87;;;;;;;12.55;75.83;100108.53;5067597;28;20615;-63
2024/02/27 08:03:16;;;;;;;24.60;16.20;;;;;;;12.61;75.37;100101.56;5062059;28;20236;-63
2024/02/27 08:05:47;;;;;;;22.83;16.87;;;;;;;12.52;74.78;100102.59;5071244;28;20553;-61
2024/02/27 08:08:16;;;;;;;22.33;16.77;;;;;;;12.47;75.27;100107.81;5069123;28;20212;-63
2024/02/27 08:10:44;;;;;;;24.53;17.50;;;;;;;12.36;74.70;100106.31;5069093;28;20210;-62
2024/02/27 08:13:13;;;;;;;21.90;16.43;;;;;;;12.22;75.18;100101.38;5071135;28;20244;-61
2024/02/27 08:15:41;;;;;;;23.63;17.07;;;;;;;12.13;75.86;100096.41;5066335;28;20563;-64
2024/02/27 08:18:10;;;;;;;23.13;16.73;;;;;;;12.06;75.73;100101.66;5070884;28;20217;-65
2024/02/27 08:20:38;;;;;;;22.43;16.83;;;;;;;12.09;76.78;100101.59;5070018;28;20197;-64
2024/02/27 08:23:08;;;;;;;24.40;17.87;;;;;;;12.07;76.19;100095.59;5069749;28;20287;-62
2024/02/27 08:25:37;;;;;;;23.80;17.03;;;;;;;12.03;76.32;100091.38;5068922;28;20298;-64
2024/02/27 08:28:06;;;;;;;25.73;17.93;;;;;;;12.06;76.76;100096.50;5069836;28;20244;-63
2024/02/27 08:30:36;;;;;;;22.43;16.33;;;;;;;12.15;76.66;100100.66;5071571;28;20194;-62
2024/02/27 08:33:04;;;;;;;23.90;17.57;;;;;;;12.33;76.81;100104.63;5070209;28;20352;-63
2024/02/27 08:35:33;;;;;;;25.07;17.13;;;;;;;12.50;75.34;100102.59;5069508;28;20206;-64
2024/02/27 08:38:01;;;;;;;27.57;17.60;;;;;;;12.66;75.48;100100.56;5070844;28;20212;-62
2024/02/27 08:40:31;;;;;;;23.30;15.87;;;;;;;12.90;75.36;100103.59;5071748;28;20209;-63
2024/02/27 08:42:59;;;;;;;24.33;17.10;;;;;;;13.02;73.31;100091.22;5069998;28;20697;-63
2024/02/27 08:45:27;;;;;;;23.53;16.80;;;;;;;13.07;73.21;100093.75;5071714;28;20685;-64
2024/02/27 08:47:57;;;;;;;23.43;16.33;;;;;;;13.16;73.65;100096.13;5071922;28;20225;-64
2024/02/27 08:50:25;;;;;;;24.10;17.40;;;;;;;13.30;73.83;100088.09;5069372;28;20280;-62
2024/02/27 08:52:53;;;;;;;23.10;16.80;;;;;;;13.38;72.48;100086.19;5065942;28;20681;-68
2024/02/27 08:55:24;;;;;;;23.63;16.87;;;;;;;13.39;70.90;100089.63;5068706;28;20208;-67
2024/02/27 08:57:53;;;;;;;23.67;16.00;;;;;;;13.36;71.69;100093.13;5067518;28;20197;-67
2024/02/27 09:00:21;;;;;;;25.33;17.70;;;;;;;13.29;71.57;100099.31;5072062;28;20213;-66
2024/02/27 09:02:49;;;;;;;26.10;16.60;;;;;;;13.24;71.13;100101.16;5072456;28;20650;-67
2024/02/27 09:05:18;;;;;;;27.47;17.20;;;;;;;13.26;72.48;100107.19;5072248;28;20225;-63
2024/02/27 09:07:47;;;;;;;24.70;16.50;;;;;;;13.39;71.47;100111.19;5067025;28;20286;-61
2024/02/27 09:10:15;;;;;;;23.83;16.73;;;;;;;13.56;71.48;100104.78;5063557;28;20248;-64
2024/02/27 09:12:43;;;;;;;24.93;16.73;;;;;;;13.66;70.80;100104.53;5065179;28;20306;-68
2024/02/27 09:15:11;;;;;;;23.73;17.03;;;;;;;13.66;70.56;100112.31;5065274;28;20208;-66
2024/02/27 09:17:40;;;;;;;23.07;16.17;;;;;;;13.77;70.30;100107.72;5067841;28;20302;-65
2024/02/27 09:20:09;;;;;;;27.60;17.47;;;;;;;13.80;70.25;100111.97;5071188;28;20295;-66
2024/02/27 09:22:39;;;;;;;25.53;16.77;;;;;;;13.85;69.72;100102.38;5071323;28;20193;-69
2024/02/27 09:25:08;;;;;;;23.30;16.20;;;;;;;13.88;69.86;100114.38;5068446;28;20265;-68
2024/02/27 09:27:36;;;;;;;25.07;17.80;;;;;;;13.84;69.03;100110.16;5066030;28;20734;-64
2024/02/27 09:30:06;;;;;;;24.77;16.47;;;;;;;13.77;69.75;100112.91;5071236;28;20739;-63
2024/02/27 09:32:34;;;;;;;22.37;15.37;;;;;;;13.79;70.23;100115.44;5064556;28;20204;-66
2024/02/27 09:35:02;;;;;;;20.20;16.03;;;;;;;13.83;69.75;100111.06;5064188;28;20244;-67
2024/02/27 09:37:31;;;;;;;24.17;16.53;;;;;;;13.88;69.62;100110.06;5069610;28;20788;-67
2024/02/27 09:40:00;;;;;;;22.63;16.37;;;;;;;13.93;70.11;100107.38;5070138;28;20824;-66
2024/02/27 09:42:30;;;;;;;23.83;16.17;;;;;;;13.99;69.52;100102.88;5068618;28;20210;-65
2024/02/27 09:45:05;;;;;;;24.50;17.23;;;;;;;14.01;69.37;100101.09;5070142;28;20657;-67
2024/02/27 09:47:38;;;;;;;29.50;18.00;;;;;;;14.04;69.46;100099.31;5060148;28;20687;-67
2024/02/27 09:50:08;;;;;;;21.93;15.30;;;;;;;14.03;69.50;100093.31;5070077;28;20202;-65
2024/02/27 09:52:38;;;;;;;21.17;16.00;;;;;;;14.04;69.40;100105.34;5066994;28;20650;-67
2024/02/27 09:55:09;;;;;;;28.23;17.03;;;;;;;14.06;69.97;100107.91;5072282;28;20197;-65
2024/02/27 09:57:37;;;;;;;24.30;17.10;;;;;;;14.08;70.06;100100.94;5068605;28;20650;-67
2024/02/27 10:00:07;;;;;;;23.83;16.83;;;;;;;14.08;69.95;100098.34;5071649;28;20643;-66
2024/02/27 10:02:37;;;;;;;23.57;16.87;;;;;;;14.07;69.61;100104.44;5070115;28;20638;-67
2024/02/27 10:05:08;;;;;;;24.97;17.43;;;;;;;14.01;69.86;100101.09;5068685;28;20197;-69
2024/02/27 10:07:38;;;;;;;24.27;16.87;;;;;;;14.00;69.91;100114.09;5069606;28;20680;-68
2024/02/27 10:10:10;;;;;;;24.10;15.37;;;;;;;14.06;70.26;100116.50;5068681;28;20189;-67
2024/02/27 10:12:38;;;;;;;22.30;16.37;;;;;;;14.23;70.68;100111.78;5066272;28;20237;-66
2024/02/27 10:15:07;;;;;;;25.93;17.87;;;;;;;14.41;69.21;100110.44;5063752;28;20219;-67
2024/02/27 10:17:43;;;;;;;21.30;16.47;;;;;;;14.53;68.51;100116.22;5065152;28;20209;-70
2024/02/27 10:20:19;;;;;;;22.97;16.20;;;;;;;14.65;68.80;100113.31;5071320;28;20225;-68
2024/02/27 10:22:48;;;;;;;23.07;17.00;;;;;;;14.84;68.51;100121.41;5061019;28;20209;-68
2024/02/27 10:25:19;;;;;;;32.50;16.40;;;;;;;14.96;67.32;100126.28;5070524;28;20197;-69
2024/02/27 10:27:48;;;;;;;23.73;16.47;;;;;;;15.01;66.87;100127.00;5071272;28;20567;-67
2024/02/27 10:30:18;;;;;;;21.83;16.00;;;;;;;15.08;66.85;100125.09;5065199;28;20194;-68
2024/02/27 10:32:47;;;;;;;22.63;15.15;;;;;;;15.17;66.49;100124.81;5063869;28;20562;-70
2024/02/27 10:35:15;;;;;;;21.33;15.90;;;;;;;15.22;66.73;100121.19;5068281;28;20198;-65
2024/02/27 10:37:44;;;;;;;23.40;15.43;;;;;;;15.27;66.39;100125.41;5068233;28;20204;-69
2024/02/27 10:40:13;;;;;;;21.45;15.95;;;;;;;15.37;65.91;100130.28;5068188;28;20213;-67
2024/02/27 10:42:42;;;;;;;25.58;15.85;;;;;;;15.46;65.94;100129.13;5070062;28;20735;-65
2024/02/27 10:45:11;;;;;;;23.07;15.80;;;;;;;15.53;65.25;100124.59;5060972;28;20661;-68
2024/02/27 10:47:42;;;;;;;24.35;16.40;;;;;;;15.55;65.51;100128.03;5070001;28;20212;-67
2024/02/27 10:50:15;;;;;;;27.52;16.10;;;;;;;15.57;65.26;100132.25;5071635;28;20680;-66
2024/02/27 10:52:46;;;;;;;22.60;15.32;;;;;;;15.49;64.57;100123.84;5064812;28;20284;-68
2024/02/27 10:55:18;;;;;;;23.08;16.23;;;;;;;15.48;64.70;100123.91;5068400;28;20201;-66
2024/02/27 10:57:48;;;;;;;20.23;14.68;;;;;;;15.48;64.63;100122.16;5070675;28;20246;-70
2024/02/27 11:00:17;;;;;;;23.15;15.05;;;;;;;15.46;64.41;100119.63;5069085;28;20209;-67
2024/02/27 11:02:49;;;;;;;21.07;14.63;;;;;;;15.47;64.82;100120.47;5069246;28;20209;-67
2024/02/27 11:05:19;;;;;;;19.23;13.68;;;;;;;15.52;64.66;100120.31;5067431;28;20662;-67
2024/02/27 11:07:48;;;;;;;22.13;14.07;;;;;;;15.63;64.45;100126.03;5070808;28;20197;-69
2024/02/27 11:10:18;;;;;;;19.17;13.38;;;;;;;15.73;63.71;100126.63;5067907;28;20334;-68
2024/02/27 11:12:49;;;;;;;19.92;13.85;;;;;;;15.83;63.55;100123.69;5059341;28;20736;-69
2024/02/27 11:15:20;;;;;;;19.45;14.73;;;;;;;15.92;63.34;100131.19;5069546;28;20654;-69
2024/02/27 11:17:54;;;;;;;26.05;13.95;;;;;;;16.02;62.96;100123.97;5064883;28;20658;-69
2024/02/27 11:20:24;;;;;;;22.83;13.70;;;;;;;16.09;62.82;100121.97;5066812;28;20273;-67
2024/02/27 11:22:52;;;;;;;18.88;14.15;;;;;;;16.12;62.48;100122.72;5070460;28;20213;-71
2024/02/27 11:25:21;;;;;;;20.02;14.02;;;;;;;16.06;61.49;100124.72;5070375;28;20209;-68